CheckWX is a tool to help pilots better visualize weather data.  It is not intended as a substitute for an official pre-flight weather briefing.

13:00:58 UTC

UMOO TAF
Mogilev Airport
Mogilev, Belarus
TAF UMOO 261100Z 2612/2621 29006G11MPS 9999 BKN020 BECMG 2616/2618 24005MPS 6000 BKN007 TEMPO 2618/2621 2000 SHRASN BKN005 SCT015CB

Mar-26@
12:00 UTC

Mar-26 @ 12:00 UTC

Mar-26@
16:00 UTC

Mar-26 @ 16:00 UTC

TAF UMOO 261100Z 2612/2621 29006G11MPS 9999 BKN020
Wind
  • 290° at 12 KTS
  • {Gusting to 21 KTS
Cloud Levels
  • Broken at 2,000' AGL

Mar-26@
16:00 UTC

Mar-26 @ 16:00 UTC

Mar-26@
21:00 UTC

Mar-26 @ 21:00 UTC

BECMG 2616/2618 24005MPS 6000 BKN007

Becoming

Becoming Conditions expected by Tue, Mar 26, 2019 @ 18:00 UTC

Wind
  • 240° at 10 KTS
Cloud Levels
  • Broken at 700' AGL

Mar-26@
18:00 UTC

Mar-26 @ 18:00 UTC

Mar-26@
21:00 UTC

Mar-26 @ 21:00 UTC

TEMPO 2618/2621 2000 SHRASN BKN005 SCT015CB

Temporary

Temporary Changes expected for less than half the time period

Conditions
Rain, Snow
Cloud Levels
  • Broken at 500' AGL
  • Scattered at 1,500' AGL